createdAt,value
2018-04-14T00:00:20.312Z,47.50
2018-04-14T00:02:47.823Z,46.40
2018-04-14T00:05:15.311Z,45.60
2018-04-14T00:07:42.813Z,45.80
2018-04-14T00:10:10.315Z,46.00
2018-04-14T00:12:37.793Z,46.70
2018-04-14T00:15:05.301Z,46.20
2018-04-14T00:17:32.801Z,46.10
2018-04-14T00:20:00.301Z,46.80
2018-04-14T00:22:28.550Z,46.30
2018-04-14T00:24:56.039Z,46.20
2018-04-14T00:27:24.298Z,47.60
2018-04-14T00:29:51.799Z,47.50
2018-04-14T00:32:19.293Z,47.50
2018-04-14T00:34:46.789Z,47.40
2018-04-14T00:37:14.288Z,48.00
2018-04-14T00:39:41.850Z,47.80
2018-04-14T00:42:09.287Z,50.10
2018-04-14T00:44:36.761Z,48.50
2018-04-14T00:47:05.023Z,46.50
2018-04-14T00:49:32.509Z,46.50
2018-04-14T00:52:00.001Z,47.40
2018-04-14T00:54:27.551Z,47.00
2018-04-14T00:56:55.053Z,48.50
2018-04-14T00:59:22.553Z,47.50
2018-04-14T01:01:50.825Z,47.10
2018-04-14T01:04:19.093Z,48.30
2018-04-14T01:06:46.616Z,48.30
2018-04-14T01:09:14.108Z,48.30
2018-04-14T01:11:41.598Z,48.50
2018-04-14T01:14:09.870Z,48.90
2018-04-14T01:16:37.362Z,48.80
2018-04-14T01:19:04.850Z,49.00
2018-04-14T01:21:32.346Z,50.80
2018-04-14T01:23:59.823Z,50.00
2018-04-14T01:26:27.328Z,49.70
2018-04-14T01:28:54.819Z,49.40
2018-04-14T01:31:22.317Z,49.50
2018-04-14T01:33:50.579Z,48.80
2018-04-14T01:36:18.069Z,48.90
2018-04-14T01:38:46.332Z,48.20
2018-04-14T01:41:13.837Z,48.20
2018-04-14T01:43:41.320Z,49.30
2018-04-14T01:46:08.813Z,48.80
2018-04-14T01:48:36.320Z,48.80
2018-04-14T01:51:03.817Z,48.80
2018-04-14T01:53:31.308Z,48.90
2018-04-14T01:55:58.809Z,50.70
2018-04-14T01:58:26.301Z,50.80
2018-04-14T02:00:53.790Z,49.70
2018-04-14T02:03:21.267Z,50.10
2018-04-14T02:05:49.517Z,50.10
2018-04-14T02:08:17.027Z,50.10
2018-04-14T02:10:44.527Z,50.20
2018-04-14T02:13:12.009Z,51.70
2018-04-14T02:15:39.497Z,50.60
2018-04-14T02:18:07.807Z,51.20
2018-04-14T02:20:35.323Z,51.20
2018-04-14T02:23:02.809Z,51.30
2018-04-14T02:25:31.054Z,51.00
2018-04-14T02:27:58.564Z,51.00
2018-04-14T02:30:26.817Z,51.90
2018-04-14T02:32:54.313Z,51.90
2018-04-14T02:35:22.573Z,50.60
2018-04-14T02:37:50.820Z,51.40
2018-04-14T02:40:18.322Z,51.40
2018-04-14T02:42:46.568Z,51.00
2018-04-14T02:45:14.048Z,51.00
2018-04-14T02:47:41.550Z,50.50
2018-04-14T02:50:09.063Z,49.60
2018-04-14T02:52:36.549Z,51.20
2018-04-14T02:55:04.834Z,52.00
2018-04-14T02:57:33.096Z,52.00
2018-04-14T03:00:00.583Z,52.00
2018-04-14T03:02:28.101Z,52.50
2018-04-14T03:04:55.592Z,51.80
2018-04-14T03:07:23.086Z,52.50
2018-04-14T03:09:50.589Z,51.10
2018-04-14T03:12:18.068Z,50.00
2018-04-14T03:14:45.561Z,50.90
2018-04-14T03:17:13.050Z,50.20
2018-04-14T03:19:40.529Z,50.10
2018-04-14T03:22:08.001Z,51.30
2018-04-14T03:24:35.473Z,51.50
2018-04-14T03:27:02.975Z,51.60
2018-04-14T03:29:30.485Z,51.90
2018-04-14T03:31:58.735Z,51.90
2018-04-14T03:34:26.217Z,51.90
2018-04-14T03:36:53.719Z,52.10
2018-04-14T03:39:21.212Z,51.40
2018-04-14T03:41:49.456Z,50.90
2018-04-14T03:44:16.947Z,50.90
2018-04-14T03:46:45.223Z,51.20
2018-04-14T03:49:13.505Z,51.80
2018-04-14T03:51:41.739Z,52.60
2018-04-14T03:54:09.239Z,52.60
2018-04-14T03:56:37.478Z,50.50
2018-04-14T03:59:05.025Z,50.40
2018-04-14T04:01:32.505Z,48.10
2018-04-14T04:03:59.987Z,46.50
2018-04-14T04:06:27.486Z,47.40
2018-04-14T04:08:55.003Z,47.80
2018-04-14T04:11:22.479Z,48.10
2018-04-14T04:13:49.958Z,49.50
2018-04-14T04:16:18.226Z,49.90
2018-04-14T04:18:57.512Z,49.90
2018-04-14T04:21:36.851Z,49.80
2018-04-14T04:24:16.158Z,49.30
2018-04-14T04:26:43.658Z,49.00
2018-04-14T04:29:11.148Z,51.10
2018-04-14T04:31:38.640Z,51.00
2018-04-14T04:34:06.155Z,51.30
2018-04-14T04:36:33.660Z,51.90
2018-04-14T04:39:01.918Z,50.40
2018-04-14T04:41:29.414Z,50.40
2018-04-14T04:43:56.892Z,51.70
2018-04-14T04:46:24.377Z,53.10
2018-04-14T04:48:51.871Z,52.40
2018-04-14T04:51:19.381Z,52.70
2018-04-14T04:53:46.880Z,52.50
2018-04-14T04:56:14.384Z,51.80
2018-04-14T04:58:42.627Z,52.00
2018-04-14T05:01:10.117Z,52.00
2018-04-14T05:03:38.362Z,52.20
2018-04-14T05:06:05.841Z,52.20
2018-04-14T05:08:33.341Z,52.60
2018-04-14T05:11:00.835Z,52.00
2018-04-14T05:13:29.073Z,52.20
2018-04-14T05:15:56.561Z,52.10
2018-04-14T05:18:24.068Z,54.00
2018-04-14T05:20:51.578Z,52.20
2018-04-14T05:23:19.080Z,52.00
2018-04-14T05:25:46.575Z,52.00
2018-04-14T05:28:14.851Z,53.00
2018-04-14T05:30:43.117Z,52.30
2018-04-14T05:33:10.608Z,52.20
2018-04-14T05:35:38.876Z,51.90
2018-04-14T05:38:07.127Z,51.70
2018-04-14T05:40:34.635Z,51.70
2018-04-14T05:43:02.888Z,52.90
2018-04-14T05:45:30.364Z,52.90
2018-04-14T05:47:58.626Z,52.60
2018-04-14T05:50:26.113Z,52.50
2018-04-14T05:52:54.360Z,53.50
2018-04-14T05:55:21.849Z,53.50
2018-04-14T05:57:50.102Z,53.70
2018-04-14T06:00:17.597Z,53.60
2018-04-14T06:02:45.843Z,53.60
2018-04-14T06:05:13.324Z,53.50
2018-04-14T06:07:40.813Z,52.50
2018-04-14T06:10:09.081Z,55.40
2018-04-14T06:12:37.338Z,53.60
2018-04-14T06:15:04.843Z,53.60
2018-04-14T06:17:32.339Z,55.90
2018-04-14T06:19:59.854Z,52.20
2018-04-14T06:22:28.104Z,54.20
2018-04-14T06:24:55.618Z,54.10
2018-04-14T06:27:23.183Z,58.80
2018-04-14T06:29:50.681Z,53.50
2018-04-14T06:32:18.192Z,55.10
2018-04-14T06:34:45.702Z,54.40
2018-04-14T06:37:13.197Z,52.80
2018-04-14T06:39:41.492Z,53.90
2018-04-14T06:42:09.770Z,53.40
2018-04-14T06:44:38.032Z,52.60
2018-04-14T06:47:05.551Z,52.60
2018-04-14T06:49:33.044Z,53.40
2018-04-14T06:52:00.531Z,52.20
2018-04-14T06:54:28.790Z,54.40
2018-04-14T06:56:56.307Z,54.40
2018-04-14T06:59:23.810Z,51.20
2018-04-14T07:01:51.321Z,50.80
2018-04-14T07:04:18.867Z,50.80
2018-04-14T07:06:46.339Z,48.90
2018-04-14T07:09:14.603Z,51.20
2018-04-14T07:11:42.861Z,53.00
2018-04-14T07:14:10.369Z,53.00
2018-04-14T07:16:37.877Z,54.60
2018-04-14T07:19:06.149Z,53.60
2018-04-14T07:21:33.654Z,53.60
2018-04-14T07:24:01.940Z,52.80
2018-04-14T07:26:30.188Z,52.10
2018-04-14T07:28:57.673Z,52.10
2018-04-14T07:31:25.175Z,53.20
2018-04-14T07:33:52.669Z,53.60
2018-04-14T07:36:20.185Z,51.40
2018-04-14T07:38:47.661Z,50.50
2018-04-14T07:41:15.169Z,50.20
2018-04-14T07:43:42.661Z,51.10
2018-04-14T07:46:10.919Z,53.50
2018-04-14T07:48:38.417Z,53.40
2018-04-14T07:51:05.911Z,52.20
2018-04-14T07:53:33.407Z,51.60
2018-04-14T07:56:00.911Z,49.60
2018-04-14T07:58:28.637Z,50.30
2018-04-14T08:00:56.147Z,49.90
2018-04-14T08:03:23.648Z,52.30
2018-04-14T08:05:51.155Z,49.90
2018-04-14T08:08:19.414Z,48.30
2018-04-14T08:10:46.912Z,48.30
2018-04-14T08:13:14.425Z,47.10
2018-04-14T08:15:41.925Z,47.00
2018-04-14T08:18:10.193Z,45.10
2018-04-14T08:20:38.483Z,45.80
2018-04-14T08:23:06.026Z,45.70
2018-04-14T08:25:34.283Z,45.50
2018-04-14T08:28:01.778Z,45.40
2018-04-14T08:30:30.049Z,44.60
2018-04-14T08:32:57.548Z,44.60
2018-04-14T08:35:25.033Z,44.10
2018-04-14T08:37:52.534Z,43.70
2018-04-14T08:40:20.049Z,44.10
2018-04-14T08:42:47.540Z,44.00
2018-04-14T08:45:15.034Z,42.70
2018-04-14T08:47:43.302Z,41.10
2018-04-14T08:50:10.813Z,41.10
2018-04-14T08:52:38.305Z,42.10
2018-04-14T08:55:05.791Z,43.90
2018-04-14T08:57:33.320Z,43.90
2018-04-14T09:00:00.843Z,44.60
2018-04-14T09:02:29.133Z,45.50
2018-04-14T09:04:56.649Z,45.40
2018-04-14T09:07:24.186Z,45.40
2018-04-14T09:09:51.716Z,44.80
2018-04-14T09:12:19.965Z,44.30
2018-04-14T09:14:47.466Z,44.40
2018-04-14T09:17:14.979Z,43.50
2018-04-14T09:19:42.697Z,42.80
2018-04-14T09:22:10.252Z,42.30
2018-04-14T09:24:38.522Z,42.30
2018-04-14T09:27:06.797Z,42.80
2018-04-14T09:29:35.070Z,43.70
2018-04-14T09:32:02.565Z,43.70
2018-04-14T09:34:30.048Z,43.50
2018-04-14T09:36:57.578Z,44.10
2018-04-14T09:39:25.821Z,45.00
2018-04-14T09:41:53.337Z,45.00
2018-04-14T09:44:20.836Z,43.90
2018-04-14T09:46:48.404Z,43.70
2018-04-14T09:49:15.879Z,43.00
2018-04-14T09:51:43.379Z,43.10
2018-04-14T09:54:11.637Z,42.40
2018-04-14T09:56:39.128Z,42.30
2018-04-14T09:59:07.397Z,41.90
2018-04-14T10:01:35.849Z,42.00
2018-04-14T10:04:03.376Z,41.90
2018-04-14T10:06:30.866Z,41.40
2018-04-14T10:08:58.364Z,41.40
2018-04-14T10:11:25.873Z,41.30
2018-04-14T10:13:53.379Z,41.10
2018-04-14T10:16:20.897Z,41.50
2018-04-14T10:18:48.398Z,42.30
2018-04-14T10:21:15.901Z,41.90
2018-04-14T10:23:43.395Z,41.30
2018-04-14T10:26:10.890Z,40.60
2018-04-14T10:28:39.191Z,40.70
2018-04-14T10:31:07.508Z,40.10
2018-04-14T10:33:35.006Z,40.10
2018-04-14T10:36:02.504Z,39.20
2018-04-14T10:38:30.783Z,39.60
2018-04-14T10:40:59.063Z,40.00
2018-04-14T10:43:27.336Z,40.20
2018-04-14T10:45:55.598Z,39.10
2018-04-14T10:48:23.100Z,39.10
2018-04-14T10:50:50.619Z,38.80
2018-04-14T10:53:18.113Z,37.80
2018-04-14T10:55:46.407Z,40.70
2018-04-14T10:58:14.655Z,37.70
2018-04-14T11:00:42.171Z,37.70
2018-04-14T11:03:09.672Z,37.80
2018-04-14T11:05:37.186Z,38.40
2018-04-14T11:08:04.681Z,37.40
2018-04-14T11:10:32.186Z,37.40
2018-04-14T11:13:00.465Z,37.60
2018-04-14T11:15:28.709Z,36.00
2018-04-14T11:17:56.969Z,35.30
2018-04-14T11:20:24.498Z,35.30
2018-04-14T11:22:51.979Z,33.40
2018-04-14T11:25:19.476Z,34.40
2018-04-14T11:27:46.982Z,34.40
2018-04-14T11:30:15.248Z,33.20
2018-04-14T11:32:42.728Z,33.20
2018-04-14T11:35:11.028Z,31.40
2018-04-14T11:37:38.508Z,31.40
2018-04-14T11:40:06.209Z,33.20
2018-04-14T11:42:33.706Z,35.70
2018-04-14T11:45:01.199Z,33.90
2018-04-14T11:47:28.698Z,33.10
2018-04-14T11:49:56.202Z,36.90
2018-04-14T11:52:23.708Z,33.10
2018-04-14T11:54:51.962Z,35.20
2018-04-14T11:57:19.478Z,34.90
2018-04-14T11:59:46.970Z,32.40
2018-04-14T12:02:14.519Z,33.20
2018-04-14T12:04:42.785Z,33.20
2018-04-14T12:07:10.263Z,33.20
2018-04-14T12:09:38.525Z,34.40
2018-04-14T12:12:06.793Z,32.40
2018-04-14T12:14:34.291Z,32.30
2018-04-14T12:17:01.805Z,33.10
2018-04-14T12:19:29.314Z,31.90
2018-04-14T12:21:57.592Z,33.70
2018-04-14T12:24:25.872Z,34.30
2018-04-14T12:26:53.357Z,34.20
2018-04-14T12:29:20.851Z,33.90
2018-04-14T12:31:48.357Z,34.00
2018-04-14T12:34:16.617Z,33.90
2018-04-14T12:36:44.103Z,33.90
2018-04-14T12:39:12.359Z,33.90
2018-04-14T12:41:39.862Z,33.90
2018-04-14T12:44:07.373Z,33.90
2018-04-14T12:46:34.907Z,33.90
2018-04-14T12:49:02.409Z,34.70
2018-04-14T12:51:31.413Z,35.20
2018-04-14T12:53:58.908Z,35.20
2018-04-14T12:56:26.428Z,35.90
2018-04-14T12:58:53.937Z,37.40
2018-04-14T13:01:21.444Z,37.70
2018-04-14T13:03:48.944Z,37.80
2018-04-14T13:06:17.209Z,35.40
2018-04-14T13:08:44.721Z,35.30
2018-04-14T13:11:12.234Z,35.90
2018-04-14T13:13:40.515Z,36.00
2018-04-14T13:16:08.012Z,36.00
2018-04-14T13:18:35.536Z,37.20
2018-04-14T13:21:03.063Z,35.00
2018-04-14T13:23:30.574Z,35.30
2018-04-14T13:25:58.865Z,34.80
2018-04-14T13:28:27.170Z,33.70
2018-04-14T13:30:54.668Z,33.60
2018-04-14T13:33:22.156Z,34.20
2018-04-14T13:35:49.648Z,34.40
2018-04-14T13:38:17.144Z,40.00
2018-04-14T13:40:44.650Z,38.00
2018-04-14T13:43:12.926Z,33.90
2018-04-14T13:45:40.408Z,33.80
2018-04-14T13:48:08.671Z,33.70
2018-04-14T13:50:36.186Z,33.60
2018-04-14T13:53:03.671Z,35.50
2018-04-14T13:55:31.161Z,34.50
2018-04-14T13:57:59.425Z,32.40
2018-04-14T14:00:26.938Z,32.40
2018-04-14T14:02:54.462Z,33.00
2018-04-14T14:05:22.000Z,33.50
2018-04-14T14:07:49.494Z,32.50
2018-04-14T14:10:17.754Z,32.50
2018-04-14T14:12:45.291Z,32.40
2018-04-14T14:15:12.781Z,31.50
2018-04-14T14:17:40.283Z,31.80
2018-04-14T14:20:07.800Z,31.90
2018-04-14T14:22:35.305Z,31.80
2018-04-14T14:25:03.596Z,30.80
2018-04-14T14:27:31.095Z,30.80
2018-04-14T14:29:58.595Z,30.80
2018-04-14T14:32:27.162Z,35.90
2018-04-14T14:34:54.661Z,35.90
2018-04-14T14:37:22.173Z,33.10
2018-04-14T14:39:49.661Z,32.00
2018-04-14T14:42:17.167Z,30.00
2018-04-14T14:44:44.669Z,29.40
2018-04-14T14:47:12.931Z,27.70
2018-04-14T14:49:40.462Z,27.70
2018-04-14T14:52:07.985Z,27.10
2018-04-14T14:54:36.408Z,28.80
2018-04-14T14:57:03.909Z,31.60
2018-04-14T14:59:31.444Z,28.70
2018-04-14T15:01:58.986Z,29.00
2018-04-14T15:04:27.263Z,29.20
2018-04-14T15:06:55.538Z,29.10
2018-04-14T15:09:23.811Z,28.90
2018-04-14T15:11:51.330Z,28.90
2018-04-14T15:14:18.844Z,28.70
2018-04-14T15:16:47.106Z,29.20
2018-04-14T15:19:14.632Z,29.20
2018-04-14T15:21:42.139Z,31.90
2018-04-14T15:24:09.639Z,31.60
2018-04-14T15:26:37.159Z,33.50
2018-04-14T15:29:04.703Z,35.00
2018-04-14T15:31:33.015Z,33.90
2018-04-14T15:34:00.511Z,33.90
2018-04-14T15:36:28.040Z,34.00
2018-04-14T15:38:55.559Z,32.20
2018-04-14T15:41:23.105Z,32.30
2018-04-14T15:43:50.620Z,32.50
2018-04-14T15:46:18.131Z,32.70
2018-04-14T15:48:45.661Z,33.80
2018-04-14T15:51:13.952Z,33.50
2018-04-14T15:53:42.223Z,34.80
2018-04-14T15:56:10.479Z,35.40
2018-04-14T15:58:37.997Z,35.40
2018-04-14T16:01:05.513Z,36.80
2018-04-14T16:03:33.008Z,39.00
2018-04-14T16:06:01.278Z,39.00
2018-04-14T16:08:29.573Z,37.80
2018-04-14T16:10:57.065Z,37.70
2018-04-14T16:13:24.588Z,36.70
2018-04-14T16:15:52.095Z,38.40
2018-04-14T16:18:19.604Z,37.60
2018-04-14T16:20:47.869Z,36.90
2018-04-14T16:23:15.368Z,36.90
2018-04-14T16:25:42.859Z,37.50
2018-04-14T16:28:10.345Z,40.20
2018-04-14T16:30:37.856Z,39.40
2018-04-14T16:33:05.356Z,38.20
2018-04-14T16:35:32.836Z,37.80
2018-04-14T16:38:00.351Z,37.50
2018-04-14T16:40:27.835Z,37.40
2018-04-14T16:42:55.335Z,38.50
2018-04-14T16:45:22.837Z,38.40
2018-04-14T16:47:50.329Z,38.40
2018-04-14T16:50:17.817Z,39.30
2018-04-14T16:52:45.321Z,38.80
2018-04-14T16:55:12.819Z,39.50
2018-04-14T16:57:40.329Z,38.80
2018-04-14T17:00:08.590Z,40.00
2018-04-14T17:02:36.114Z,40.00
2018-04-14T17:05:03.631Z,40.50
2018-04-14T17:07:31.137Z,39.10
2018-04-14T17:09:58.628Z,39.50
2018-04-14T17:12:26.137Z,40.60
2018-04-14T17:14:54.396Z,42.50
2018-04-14T17:17:21.892Z,42.50
2018-04-14T17:19:49.456Z,43.00
2018-04-14T17:22:16.970Z,43.20
2018-04-14T17:24:44.457Z,45.00
2018-04-14T17:27:12.715Z,44.30
2018-04-14T17:29:40.225Z,44.30
2018-04-14T17:32:07.732Z,44.20
2018-04-14T17:34:35.254Z,43.60
2018-04-14T17:37:02.742Z,43.50
2018-04-14T17:39:30.239Z,42.20
2018-04-14T17:41:57.754Z,44.40
2018-04-14T17:44:25.326Z,43.40
2018-04-14T17:46:52.739Z,43.10
2018-04-14T17:49:20.247Z,43.50
2018-04-14T17:51:47.756Z,44.50
2018-04-14T17:54:15.244Z,44.20
2018-04-14T17:56:43.506Z,45.10
2018-04-14T17:59:11.006Z,45.10
2018-04-14T18:01:38.534Z,44.80
2018-04-14T18:04:06.810Z,46.50
2018-04-14T18:06:34.292Z,46.50
2018-04-14T18:09:01.801Z,46.70
2018-04-14T18:11:29.322Z,46.00
2018-04-14T18:13:56.830Z,46.60
2018-04-14T18:16:24.366Z,46.50
2018-04-14T18:18:51.864Z,46.90
2018-04-14T18:21:19.356Z,47.10
2018-04-14T18:23:46.883Z,47.40
2018-04-14T18:26:14.390Z,47.90
2018-04-14T18:28:42.640Z,47.10
2018-04-14T18:31:10.130Z,47.10
2018-04-14T18:33:38.400Z,48.90
2018-04-14T18:36:05.896Z,48.80
2018-04-14T18:38:33.404Z,49.10
2018-04-14T18:41:00.902Z,50.00
2018-04-14T18:43:29.178Z,49.40
2018-04-14T18:45:57.448Z,49.20
2018-04-14T18:48:24.959Z,49.20
2018-04-14T18:50:52.498Z,48.30
2018-04-14T18:53:19.979Z,48.30
2018-04-14T18:55:47.463Z,49.10
2018-04-14T18:58:14.965Z,48.30
2018-04-14T19:00:42.469Z,49.10
2018-04-14T19:03:09.986Z,49.80
2018-04-14T19:05:38.250Z,49.60
2018-04-14T19:08:05.736Z,49.60
2018-04-14T19:10:34.009Z,51.00
2018-04-14T19:13:01.521Z,51.00
2018-04-14T19:15:29.008Z,50.30
2018-04-14T19:17:56.499Z,50.40
2018-04-14T19:20:24.001Z,50.50
2018-04-14T19:22:51.502Z,51.10
2018-04-14T19:25:19.756Z,52.70
2018-04-14T19:27:47.297Z,52.70
2018-04-14T19:30:15.545Z,52.10
2018-04-14T19:32:43.038Z,52.10
2018-04-14T19:35:10.551Z,51.00
2018-04-14T19:37:38.053Z,51.80
2018-04-14T19:40:05.573Z,51.60
2018-04-14T19:42:33.096Z,51.20
2018-04-14T19:45:00.573Z,50.80
2018-04-14T19:47:28.070Z,50.70
2018-04-14T19:49:55.547Z,51.10
2018-04-14T19:52:23.046Z,51.20
2018-04-14T19:54:50.532Z,52.00
2018-04-14T19:57:18.025Z,51.90
2018-04-14T19:59:45.534Z,52.30
2018-04-14T20:02:13.805Z,52.70
2018-04-14T20:04:41.306Z,52.70
2018-04-14T20:07:08.808Z,52.70
2018-04-14T20:09:36.303Z,52.00
2018-04-14T20:12:03.832Z,51.80
2018-04-14T20:14:31.332Z,52.10
2018-04-14T20:16:58.819Z,52.10
2018-04-14T20:19:26.350Z,51.80
2018-04-14T20:21:54.080Z,51.80
2018-04-14T20:24:21.582Z,52.20
2018-04-14T20:26:49.075Z,51.70
2018-04-14T20:29:16.574Z,51.50
2018-04-14T20:31:44.079Z,52.00
2018-04-14T20:34:11.610Z,51.40
2018-04-14T20:36:39.102Z,50.80
2018-04-14T20:39:06.609Z,51.70
2018-04-14T20:41:34.142Z,52.20
2018-04-14T20:44:01.651Z,52.50
2018-04-14T20:46:29.153Z,53.30
2018-04-14T20:48:56.644Z,52.80
2018-04-14T20:51:24.145Z,53.30
2018-04-14T20:53:51.669Z,53.70
2018-04-14T20:56:19.168Z,54.80
2018-04-14T20:58:46.662Z,55.10
2018-04-14T21:01:14.923Z,55.20
2018-04-14T21:03:43.187Z,55.40
2018-04-14T21:06:10.708Z,55.40
2018-04-14T21:08:38.192Z,55.90
2018-04-14T21:11:05.736Z,56.10
2018-04-14T21:13:33.245Z,55.90
2018-04-14T21:16:00.721Z,57.10
2018-04-14T21:18:28.228Z,57.40
2018-04-14T21:20:55.978Z,57.90
2018-04-14T21:23:23.489Z,57.60
2018-04-14T21:25:50.996Z,57.90
2018-04-14T21:28:18.491Z,56.90
2018-04-14T21:30:45.993Z,57.60
2018-04-14T21:33:13.501Z,57.60
2018-04-14T21:35:40.997Z,57.30
2018-04-14T21:38:08.485Z,57.10
2018-04-14T21:40:35.991Z,56.90
2018-04-14T21:43:03.505Z,57.90
2018-04-14T21:45:30.995Z,57.70
2018-04-14T21:47:59.275Z,57.60
2018-04-14T21:50:27.535Z,58.70
2018-04-14T21:52:55.032Z,58.70
2018-04-14T21:55:22.553Z,58.90
2018-04-14T21:57:50.051Z,59.00
2018-04-14T22:00:17.565Z,59.10
2018-04-14T22:02:45.083Z,59.20
2018-04-14T22:05:12.586Z,59.70
2018-04-14T22:07:40.101Z,59.20
2018-04-14T22:10:07.578Z,60.10
2018-04-14T22:12:35.119Z,60.60
2018-04-14T22:15:02.630Z,60.30
2018-04-14T22:17:30.137Z,60.50
2018-04-14T22:19:58.393Z,59.70
2018-04-14T22:22:25.903Z,59.70
2018-04-14T22:24:53.399Z,59.50
2018-04-14T22:27:20.887Z,59.60
2018-04-14T22:29:49.154Z,60.20
2018-04-14T22:32:16.660Z,60.10
2018-04-14T22:34:44.924Z,60.80
2018-04-14T22:37:12.415Z,60.80
2018-04-14T22:39:39.925Z,60.70
2018-04-14T22:42:07.413Z,59.70
2018-04-14T22:44:35.712Z,60.60
2018-04-14T22:47:03.200Z,60.60
2018-04-14T22:49:30.701Z,60.90
2018-04-14T22:51:58.193Z,60.80
2018-04-14T22:54:26.646Z,61.10
2018-04-14T22:56:54.149Z,61.10
2018-04-14T22:59:21.661Z,60.80
2018-04-14T23:01:49.144Z,60.30
2018-04-14T23:04:16.648Z,61.40
2018-04-14T23:06:44.133Z,60.60
2018-04-14T23:09:11.655Z,60.60
2018-04-14T23:11:39.924Z,60.10
2018-04-14T23:14:08.194Z,60.30
2018-04-14T23:16:35.672Z,60.20
2018-04-14T23:19:03.175Z,59.10
2018-04-14T23:21:30.661Z,59.50
2018-04-14T23:23:58.165Z,59.20
2018-04-14T23:26:26.419Z,59.70
2018-04-14T23:28:53.904Z,59.70
2018-04-14T23:31:22.184Z,59.60
2018-04-14T23:33:50.503Z,59.70
2018-04-14T23:36:17.980Z,59.70
2018-04-14T23:38:46.245Z,60.60
2018-04-14T23:41:13.751Z,60.50
2018-04-14T23:43:41.245Z,60.80
2018-04-14T23:46:08.733Z,60.40
2018-04-14T23:48:36.221Z,60.20
2018-04-14T23:51:03.713Z,61.20
2018-04-14T23:53:32.016Z,61.00
2018-04-14T23:55:59.532Z,61.00
2018-04-14T23:58:27.017Z,61.50
